createdAt,value
2018-12-25T00:00:47.017Z,9.27
2018-12-25T00:03:17.939Z,10.57
2018-12-25T00:05:48.904Z,9.60
2018-12-25T00:08:19.821Z,10.40
2018-12-25T00:10:50.782Z,9.53
2018-12-25T00:13:21.711Z,10.27
2018-12-25T00:15:52.651Z,11.30
2018-12-25T00:18:23.578Z,11.00
2018-12-25T00:20:54.529Z,10.60
2018-12-25T00:23:25.535Z,11.13
2018-12-25T00:25:56.493Z,10.80
2018-12-25T00:28:27.423Z,10.70
2018-12-25T00:30:58.375Z,11.67
2018-12-25T00:33:29.299Z,11.07
2018-12-25T00:36:00.338Z,10.90
2018-12-25T00:38:31.291Z,11.57
2018-12-25T00:41:02.252Z,12.30
2018-12-25T00:43:33.215Z,13.13
2018-12-25T00:46:04.275Z,12.10
2018-12-25T00:48:35.242Z,11.77
2018-12-25T00:51:06.268Z,11.93
2018-12-25T00:53:37.203Z,11.73
2018-12-25T00:56:08.149Z,11.47
2018-12-25T00:58:39.093Z,11.40
2018-12-25T01:01:10.035Z,11.40
2018-12-25T01:03:41.023Z,11.10
2018-12-25T01:06:11.956Z,10.87
2018-12-25T01:08:42.979Z,11.00
2018-12-25T01:11:13.991Z,11.60
2018-12-25T01:13:44.898Z,11.27
2018-12-25T01:16:15.848Z,11.93
2018-12-25T01:18:46.816Z,11.13
2018-12-25T01:21:17.793Z,11.23
2018-12-25T01:23:49.072Z,11.33
2018-12-25T01:26:20.010Z,11.40
2018-12-25T01:28:51.035Z,11.27
2018-12-25T01:31:21.954Z,10.00
2018-12-25T01:33:52.863Z,10.93
2018-12-25T01:36:23.776Z,12.07
2018-12-25T01:38:54.704Z,11.50
2018-12-25T01:41:25.643Z,11.77
2018-12-25T01:43:56.605Z,12.40
2018-12-25T01:46:27.523Z,11.50
2018-12-25T01:48:58.524Z,12.00
2018-12-25T01:51:29.513Z,13.30
2018-12-25T01:54:00.526Z,12.43
2018-12-25T01:56:31.558Z,11.77
2018-12-25T01:59:02.535Z,12.47
2018-12-25T02:01:33.472Z,12.17
2018-12-25T02:04:04.448Z,12.13
2018-12-25T02:06:35.358Z,13.00
2018-12-25T02:09:07.645Z,12.97
2018-12-25T02:11:38.641Z,12.03
2018-12-25T02:14:09.614Z,13.43
2018-12-25T02:16:40.540Z,13.33
2018-12-25T02:19:11.507Z,13.43
2018-12-25T02:21:42.593Z,12.83
2018-12-25T02:24:13.553Z,13.10
2018-12-25T02:26:44.495Z,12.70
2018-12-25T02:29:15.587Z,12.83
2018-12-25T02:31:46.607Z,12.93
2018-12-25T02:34:17.543Z,12.63
2018-12-25T02:36:48.639Z,12.93
2018-12-25T02:39:19.653Z,13.23
2018-12-25T02:41:50.692Z,13.63
2018-12-25T02:44:21.619Z,12.40
2018-12-25T02:46:52.569Z,12.90
2018-12-25T02:49:23.664Z,12.43
2018-12-25T02:51:54.745Z,12.77
2018-12-25T02:54:26.813Z,12.77
2018-12-25T02:56:57.889Z,13.33
2018-12-25T02:59:28.880Z,12.33
2018-12-25T03:01:59.826Z,11.97
2018-12-25T03:04:30.767Z,12.87
2018-12-25T03:07:01.700Z,11.97
2018-12-25T03:09:32.645Z,11.63
2018-12-25T03:12:03.645Z,11.77
2018-12-25T03:14:34.568Z,11.57
2018-12-25T03:17:05.550Z,11.10
2018-12-25T03:19:36.462Z,11.90
2018-12-25T03:22:11.122Z,11.80
2018-12-25T03:24:43.125Z,11.60
2018-12-25T03:27:14.099Z,11.93
2018-12-25T03:29:45.012Z,11.43
2018-12-25T03:32:15.941Z,10.47
2018-12-25T03:34:46.969Z,10.77
2018-12-25T03:37:17.892Z,11.10
2018-12-25T03:39:48.820Z,11.23
2018-12-25T03:42:21.596Z,11.43
2018-12-25T03:44:52.520Z,10.57
2018-12-25T03:47:23.492Z,10.53
2018-12-25T03:49:54.406Z,12.10
2018-12-25T03:52:25.337Z,11.43
2018-12-25T03:54:56.321Z,10.80
2018-12-25T03:57:27.245Z,11.13
2018-12-25T03:59:58.198Z,10.53
2018-12-25T04:02:29.109Z,9.47
2018-12-25T04:05:00.044Z,9.90
2018-12-25T04:07:30.963Z,8.83
2018-12-25T04:10:01.894Z,8.53
2018-12-25T04:12:32.873Z,8.43
2018-12-25T04:15:03.776Z,8.57
2018-12-25T04:17:34.684Z,9.10
2018-12-25T04:20:05.987Z,8.73
2018-12-25T04:22:36.939Z,7.87
2018-12-25T04:25:08.933Z,8.47
2018-12-25T04:27:39.846Z,8.30
2018-12-25T04:30:10.835Z,8.13
2018-12-25T04:32:41.763Z,6.83
2018-12-25T04:35:12.675Z,7.27
2018-12-25T04:37:43.716Z,8.03
2018-12-25T04:40:14.601Z,7.47
2018-12-25T04:42:45.567Z,6.93
2018-12-25T04:45:16.494Z,6.87
2018-12-25T04:47:47.434Z,7.17
2018-12-25T04:50:18.344Z,7.00
2018-12-25T04:52:49.256Z,7.37
2018-12-25T04:55:20.239Z,7.60
2018-12-25T04:57:51.145Z,7.23
2018-12-25T05:00:22.109Z,7.30
2018-12-25T05:02:53.035Z,6.87
2018-12-25T05:05:23.953Z,8.13
2018-12-25T05:07:54.876Z,7.50
2018-12-25T05:10:25.904Z,7.00
2018-12-25T05:12:56.795Z,7.27
2018-12-25T05:15:27.749Z,7.40
2018-12-25T05:17:58.670Z,7.07
2018-12-25T05:20:37.701Z,7.63
2018-12-25T05:23:02.238Z,7.17
2018-12-25T05:25:33.241Z,6.97
2018-12-25T05:28:04.149Z,6.80
2018-12-25T05:30:35.100Z,7.63
2018-12-25T05:33:06.079Z,6.50
2018-12-25T05:35:37.043Z,6.90
2018-12-25T05:38:08.008Z,7.57
2018-12-25T05:40:39.041Z,7.33
2018-12-25T05:43:09.967Z,7.67
2018-12-25T05:45:40.879Z,6.93
2018-12-25T05:48:11.793Z,7.37
2018-12-25T05:50:46.784Z,7.43
2018-12-25T05:53:15.369Z,7.50
2018-12-25T05:55:46.289Z,7.80
2018-12-25T05:58:17.227Z,7.93
2018-12-25T06:00:48.276Z,7.20
2018-12-25T06:03:19.180Z,8.30
2018-12-25T06:05:50.188Z,8.63
2018-12-25T06:08:21.101Z,8.07
2018-12-25T06:10:52.030Z,8.00
2018-12-25T06:13:23.008Z,7.60
2018-12-25T06:15:53.919Z,7.60
2018-12-25T06:18:24.842Z,7.57
2018-12-25T06:20:55.759Z,7.90
2018-12-25T06:23:26.684Z,7.93
2018-12-25T06:25:57.659Z,7.87
2018-12-25T06:28:28.578Z,8.57
2018-12-25T06:30:59.603Z,8.67
2018-12-25T06:33:30.559Z,8.30
2018-12-25T06:36:02.612Z,9.20
2018-12-25T06:38:33.524Z,9.33
2018-12-25T06:41:04.513Z,9.40
2018-12-25T06:43:35.548Z,9.30
2018-12-25T06:46:07.587Z,10.20
2018-12-25T06:48:38.502Z,10.67
2018-12-25T06:51:10.406Z,9.23
2018-12-25T06:53:41.372Z,10.37
2018-12-25T06:56:12.311Z,8.97
2018-12-25T06:58:43.254Z,9.20
2018-12-25T07:01:14.200Z,10.83
2018-12-25T07:03:45.141Z,10.57
2018-12-25T07:06:16.160Z,10.73
2018-12-25T07:08:47.098Z,11.70
2018-12-25T07:11:18.059Z,11.03
2018-12-25T07:13:49.015Z,11.80
2018-12-25T07:16:19.972Z,13.13
2018-12-25T07:18:50.892Z,11.67
2018-12-25T07:21:21.869Z,11.33
2018-12-25T07:23:52.860Z,10.27
2018-12-25T07:26:23.768Z,12.03
2018-12-25T07:28:54.735Z,10.77
2018-12-25T07:31:26.893Z,9.87
2018-12-25T07:33:57.881Z,9.77
2018-12-25T07:36:28.831Z,11.40
2018-12-25T07:38:59.744Z,11.77
2018-12-25T07:41:33.056Z,12.40
2018-12-25T07:44:04.880Z,12.00
2018-12-25T07:46:39.181Z,11.90
2018-12-25T07:49:19.797Z,11.47
2018-12-25T07:52:16.058Z,11.30
2018-12-25T07:54:52.757Z,10.20
2018-12-25T07:57:23.827Z,10.77
2018-12-25T07:59:54.757Z,10.53
2018-12-25T08:02:25.692Z,10.57
2018-12-25T08:04:58.302Z,10.57
2018-12-25T08:07:29.266Z,10.33
2018-12-25T08:10:13.053Z,10.40
2018-12-25T08:12:44.071Z,9.70
2018-12-25T08:15:15.025Z,9.47
2018-12-25T08:17:46.586Z,10.30
2018-12-25T08:20:20.115Z,9.90
2018-12-25T08:22:51.069Z,12.20
2018-12-25T08:25:22.077Z,9.47
2018-12-25T08:27:53.196Z,8.47
2018-12-25T08:30:24.364Z,8.43
2018-12-25T08:32:55.377Z,12.47
2018-12-25T08:35:26.368Z,58.63
2018-12-25T08:37:57.420Z,37.07
2018-12-25T08:40:28.519Z,38.77
2018-12-25T08:42:59.437Z,12.97
2018-12-25T08:45:30.409Z,12.83
2018-12-25T08:48:01.620Z,11.70
2018-12-25T08:50:33.114Z,11.97
2018-12-25T08:53:04.024Z,10.30
2018-12-25T08:55:37.307Z,13.40
2018-12-25T08:58:08.310Z,12.13
2018-12-25T09:00:39.544Z,11.30
2018-12-25T09:03:10.576Z,10.90
2018-12-25T09:05:41.580Z,13.53
2018-12-25T09:08:12.915Z,12.00
2018-12-25T09:10:44.138Z,9.73
2018-12-25T09:13:15.130Z,9.37
2018-12-25T09:15:46.089Z,8.20
2018-12-25T09:18:17.017Z,9.10
2018-12-25T09:20:50.259Z,9.90
2018-12-25T09:23:21.193Z,9.70
2018-12-25T09:25:52.213Z,8.67
2018-12-25T09:28:23.852Z,9.10
2018-12-25T09:30:55.224Z,8.53
2018-12-25T09:33:30.068Z,7.93
2018-12-25T09:36:00.996Z,7.87
2018-12-25T09:38:32.339Z,8.23
2018-12-25T09:41:03.795Z,7.53
2018-12-25T09:43:34.920Z,8.37
2018-12-25T09:46:06.280Z,8.37
2018-12-25T09:48:37.338Z,9.53
2018-12-25T09:51:08.373Z,10.50
2018-12-25T09:53:39.398Z,11.30
2018-12-25T09:56:10.448Z,10.63
2018-12-25T09:58:41.386Z,10.10
2018-12-25T10:01:12.413Z,9.80
2018-12-25T10:03:43.338Z,10.93
2018-12-25T10:06:14.280Z,11.20
2018-12-25T10:08:45.279Z,10.03
2018-12-25T10:11:16.211Z,9.60
2018-12-25T10:13:47.145Z,8.37
2018-12-25T10:16:18.081Z,7.67
2018-12-25T10:18:49.047Z,8.10
2018-12-25T10:21:20.007Z,8.43
2018-12-25T10:23:50.954Z,7.43
2018-12-25T10:26:22.427Z,7.83
2018-12-25T10:28:57.406Z,7.63
2018-12-25T10:31:29.929Z,7.07
2018-12-25T10:34:01.179Z,7.53
2018-12-25T10:36:32.195Z,7.57
2018-12-25T10:39:04.639Z,8.93
2018-12-25T10:41:35.822Z,7.53
2018-12-25T10:44:06.821Z,6.90
2018-12-25T10:46:37.981Z,7.83
2018-12-25T10:49:09.061Z,8.07
2018-12-25T10:51:40.010Z,8.03
2018-12-25T10:54:11.000Z,7.10
2018-12-25T10:56:42.986Z,6.93
2018-12-25T10:59:14.050Z,7.67
2018-12-25T11:01:45.027Z,6.70
2018-12-25T11:04:16.212Z,7.77
2018-12-25T11:06:47.533Z,6.77
2018-12-25T11:09:18.775Z,7.53
2018-12-25T11:11:49.787Z,8.43
2018-12-25T11:14:21.087Z,7.87
2018-12-25T11:16:52.137Z,8.00
2018-12-25T11:19:24.549Z,7.43
2018-12-25T11:21:55.701Z,7.50
2018-12-25T11:24:26.969Z,7.10
2018-12-25T11:26:57.961Z,6.53
2018-12-25T11:29:28.975Z,6.87
2018-12-25T11:32:00.833Z,6.50
2018-12-25T11:34:31.917Z,6.60
2018-12-25T11:37:02.945Z,6.23
2018-12-25T11:39:33.887Z,6.30
2018-12-25T11:42:05.079Z,6.63
2018-12-25T11:44:36.600Z,7.23
2018-12-25T11:47:08.754Z,6.67
2018-12-25T11:49:39.735Z,6.30
2018-12-25T11:52:10.698Z,7.00
2018-12-25T11:54:41.981Z,6.90
2018-12-25T11:57:13.501Z,7.20
2018-12-25T11:59:44.445Z,8.07
2018-12-25T12:02:17.225Z,8.93
2018-12-25T12:04:48.147Z,8.30
2018-12-25T12:07:19.339Z,9.83
2018-12-25T12:09:50.269Z,8.43
2018-12-25T12:12:21.306Z,7.13
2018-12-25T12:14:52.236Z,8.27
2018-12-25T12:17:23.210Z,7.63
2018-12-25T12:19:55.789Z,8.50
2018-12-25T12:26:06.633Z,6.80
2018-12-25T12:28:37.688Z,7.70
2018-12-25T12:31:08.782Z,7.70
2018-12-25T12:33:39.759Z,7.27
2018-12-25T12:36:10.733Z,7.00
2018-12-25T12:38:41.713Z,7.43
2018-12-25T12:41:12.690Z,7.63
2018-12-25T12:43:43.668Z,7.33
2018-12-25T12:46:14.635Z,7.77
2018-12-25T12:49:45.341Z,7.17
2018-12-25T12:57:03.048Z,6.87
2018-12-25T12:59:47.768Z,7.30
2018-12-25T13:02:20.082Z,7.33
2018-12-25T13:04:51.005Z,6.40
2018-12-25T13:07:21.966Z,6.70
2018-12-25T13:09:52.991Z,6.40
2018-12-25T13:12:24.019Z,5.93
2018-12-25T13:14:54.989Z,6.63
2018-12-25T13:17:25.971Z,6.20
2018-12-25T13:19:56.885Z,6.20
2018-12-25T13:22:27.868Z,6.47
2018-12-25T13:24:58.793Z,5.87
2018-12-25T13:27:29.718Z,6.10
2018-12-25T13:30:00.664Z,6.73
2018-12-25T13:32:31.656Z,6.33
2018-12-25T13:35:02.618Z,6.40
2018-12-25T13:37:33.536Z,6.20
2018-12-25T13:40:04.766Z,6.07
2018-12-25T13:42:35.744Z,6.07
2018-12-25T13:45:06.761Z,6.47
2018-12-25T13:47:37.718Z,6.00
2018-12-25T13:50:09.641Z,5.77
2018-12-25T13:52:41.640Z,5.40
2018-12-25T13:55:12.563Z,5.20
2018-12-25T13:57:43.489Z,6.23
2018-12-25T14:00:14.434Z,4.73
2018-12-25T14:02:45.373Z,4.37
2018-12-25T14:05:16.706Z,4.73
2018-12-25T14:07:47.655Z,4.07
2018-12-25T14:10:18.598Z,4.30
2018-12-25T14:12:49.582Z,4.30
2018-12-25T14:15:20.579Z,4.00
2018-12-25T14:17:51.599Z,4.07
2018-12-25T14:20:22.533Z,3.70
2018-12-25T14:22:53.630Z,4.23
2018-12-25T14:25:24.576Z,4.30
2018-12-25T14:27:55.563Z,4.07
2018-12-25T14:30:26.483Z,4.00
2018-12-25T14:32:57.464Z,4.00
2018-12-25T14:35:28.510Z,4.37
2018-12-25T14:37:59.523Z,4.10
2018-12-25T14:40:30.524Z,4.27
2018-12-25T14:43:01.572Z,4.33
2018-12-25T14:45:34.083Z,4.50
2018-12-25T14:48:05.054Z,5.10
2018-12-25T14:50:35.977Z,4.87
2018-12-25T14:53:06.923Z,4.30
2018-12-25T14:55:37.975Z,4.37
2018-12-25T14:58:08.953Z,4.53
2018-12-25T15:00:39.978Z,4.77
2018-12-25T15:03:10.950Z,4.87
2018-12-25T15:05:41.877Z,4.83
2018-12-25T15:08:12.933Z,4.93
2018-12-25T15:10:44.036Z,4.70
2018-12-25T15:13:15.052Z,5.00
2018-12-25T15:15:46.012Z,4.83
2018-12-25T15:18:17.058Z,4.73
2018-12-25T15:20:48.149Z,5.47
2018-12-25T15:23:19.333Z,5.20
2018-12-25T15:25:50.294Z,5.50
2018-12-25T15:28:21.342Z,5.83
2018-12-25T15:30:52.358Z,6.43
2018-12-25T15:33:23.425Z,5.50
2018-12-25T15:35:54.382Z,5.47
2018-12-25T15:38:25.362Z,6.77
2018-12-25T15:40:57.396Z,5.13
2018-12-25T15:43:28.501Z,5.10
2018-12-25T15:45:59.516Z,4.77
2018-12-25T15:48:30.499Z,3.90
2018-12-25T15:51:01.546Z,4.57
2018-12-25T15:53:36.818Z,5.17
2018-12-25T15:56:05.248Z,5.23
2018-12-25T15:58:36.201Z,5.47
2018-12-25T16:01:07.197Z,4.50
2018-12-25T16:03:38.228Z,5.57
2018-12-25T16:06:09.155Z,4.77
2018-12-25T16:08:40.126Z,4.23
2018-12-25T16:11:11.201Z,4.00
2018-12-25T16:13:42.250Z,3.80
2018-12-25T16:16:15.787Z,4.33
2018-12-25T16:18:46.804Z,4.60
2018-12-25T16:21:17.752Z,4.40
2018-12-25T16:23:50.503Z,3.90
2018-12-25T16:26:21.506Z,4.47
2018-12-25T16:28:52.557Z,3.80
2018-12-25T16:31:23.704Z,4.00
2018-12-25T16:33:55.706Z,6.10
2018-12-25T16:36:26.716Z,3.73
2018-12-25T16:38:57.654Z,3.57
2018-12-25T16:41:28.723Z,3.97
2018-12-25T16:43:59.757Z,4.33
2018-12-25T16:46:30.793Z,3.63
2018-12-25T16:49:01.871Z,3.70
2018-12-25T16:51:35.126Z,4.10
2018-12-25T16:54:06.151Z,4.70
2018-12-25T16:56:37.136Z,4.43
2018-12-25T16:59:08.187Z,4.90
2018-12-25T17:01:39.301Z,4.53
2018-12-25T17:04:10.311Z,5.10
2018-12-25T17:06:41.330Z,4.90
2018-12-25T17:09:12.415Z,4.40
2018-12-25T17:11:43.498Z,4.20
2018-12-25T17:14:14.512Z,4.80
2018-12-25T17:16:45.564Z,5.83
2018-12-25T17:19:16.610Z,6.13
2018-12-25T17:21:47.579Z,6.37
2018-12-25T17:24:18.600Z,6.37
2018-12-25T17:26:49.649Z,5.37
2018-12-25T17:29:20.597Z,4.90
2018-12-25T17:31:51.557Z,4.83
2018-12-25T17:34:22.523Z,5.70
2018-12-25T17:36:53.502Z,6.83
2018-12-25T17:39:24.663Z,5.90
2018-12-25T17:41:55.570Z,7.40
2018-12-25T17:44:26.817Z,7.47
2018-12-25T17:46:57.913Z,7.67
2018-12-25T17:49:28.980Z,8.30
2018-12-25T17:51:59.948Z,6.80
2018-12-25T17:54:30.901Z,7.13
2018-12-25T18:00:43.756Z,6.23
2018-12-25T18:03:14.807Z,6.40
2018-12-25T18:05:45.776Z,6.70
2018-12-25T18:08:16.703Z,6.40
2018-12-25T18:10:47.640Z,6.67
2018-12-25T18:13:18.634Z,7.27
2018-12-25T18:15:49.552Z,6.80
2018-12-25T18:18:20.628Z,6.97
2018-12-25T18:20:51.559Z,6.60
2018-12-25T18:23:22.555Z,6.97
2018-12-25T18:25:53.488Z,7.27
2018-12-25T18:28:24.639Z,5.97
2018-12-25T18:30:55.709Z,5.90
2018-12-25T18:33:26.899Z,5.70
2018-12-25T18:35:57.919Z,5.40
2018-12-25T18:38:29.086Z,5.70
2018-12-25T18:40:59.967Z,6.27
2018-12-25T18:43:30.902Z,6.37
2018-12-25T18:46:01.826Z,5.77
2018-12-25T18:48:32.814Z,5.60
2018-12-25T18:51:03.807Z,5.20
2018-12-25T18:53:34.814Z,5.93
2018-12-25T18:56:05.794Z,5.97
2018-12-25T18:58:36.713Z,5.93
2018-12-25T19:01:07.710Z,5.67
2018-12-25T19:03:38.729Z,5.70
2018-12-25T19:06:09.735Z,5.00
2018-12-25T19:08:40.757Z,5.73
2018-12-25T19:11:11.682Z,6.20
2018-12-25T19:13:42.732Z,6.50
2018-12-25T19:16:13.668Z,6.60
2018-12-25T19:18:44.734Z,7.23
2018-12-25T19:21:15.654Z,7.20
2018-12-25T19:23:55.367Z,6.00
2018-12-25T19:26:26.381Z,6.03
2018-12-25T19:28:57.423Z,5.37
2018-12-25T19:31:28.483Z,5.13
2018-12-25T19:33:59.403Z,5.13
2018-12-25T19:36:30.345Z,5.17
2018-12-25T19:39:01.306Z,6.03
2018-12-25T19:41:33.894Z,8.40
2018-12-25T19:44:04.849Z,7.37
2018-12-25T19:46:35.896Z,7.93
2018-12-25T19:49:07.042Z,6.40
2018-12-25T19:51:37.975Z,5.10
2018-12-25T19:54:08.953Z,7.87
2018-12-25T19:56:39.993Z,5.97
2018-12-25T19:59:10.943Z,6.63
2018-12-25T20:01:41.872Z,9.23
2018-12-25T20:04:50.009Z,6.33
2018-12-25T20:07:58.064Z,6.00
2018-12-25T20:10:45.985Z,5.13
2018-12-25T20:14:16.369Z,5.77
2018-12-25T20:17:24.256Z,6.67
2018-12-25T20:20:44.527Z,6.97
2018-12-25T20:24:05.852Z,7.70
2018-12-25T20:27:25.787Z,7.43
2018-12-25T20:30:43.624Z,5.90
2018-12-25T20:33:30.467Z,4.80
2018-12-25T20:36:54.038Z,4.33
2018-12-25T20:40:07.689Z,4.50
2018-12-25T20:43:15.412Z,5.17
2018-12-25T20:46:13.835Z,5.53
2018-12-25T20:49:41.092Z,5.40
2018-12-25T20:52:57.628Z,5.30
2018-12-25T20:56:04.375Z,6.03
2018-12-25T20:58:56.472Z,6.50
2018-12-25T21:02:02.398Z,7.13
2018-12-25T21:05:22.594Z,7.07
2018-12-25T21:08:49.158Z,6.87
2018-12-25T21:11:59.935Z,7.47
2018-12-25T21:15:20.485Z,7.97
2018-12-25T21:18:46.620Z,8.00
2018-12-25T21:21:46.810Z,7.90
2018-12-25T21:24:53.716Z,7.63
2018-12-25T21:27:33.322Z,7.67
2018-12-25T21:30:11.147Z,7.20
2018-12-25T21:32:43.662Z,7.90
2018-12-25T21:35:25.340Z,7.33
2018-12-25T21:37:57.582Z,8.60
2018-12-25T21:40:28.640Z,7.37
2018-12-25T21:42:59.856Z,7.83
2018-12-25T21:45:30.906Z,7.90
2018-12-25T21:48:01.988Z,8.10
2018-12-25T21:50:32.958Z,8.80
2018-12-25T21:53:04.165Z,8.33
2018-12-25T21:55:35.434Z,8.03
2018-12-25T21:58:06.653Z,8.90
2018-12-25T22:00:37.635Z,10.83
2018-12-25T22:03:08.650Z,9.70
2018-12-25T22:05:39.647Z,8.87
2018-12-25T22:08:10.679Z,8.70
2018-12-25T22:10:41.893Z,9.07
2018-12-25T22:13:12.901Z,7.50
2018-12-25T22:15:43.959Z,7.00
2018-12-25T22:18:14.976Z,6.73
2018-12-25T22:20:46.162Z,6.47
2018-12-25T22:23:17.230Z,6.40
2018-12-25T22:25:49.024Z,6.83
2018-12-25T22:28:20.141Z,6.37
2018-12-25T22:30:52.474Z,6.13
2018-12-25T22:33:25.677Z,7.10
2018-12-25T22:35:56.954Z,7.13
2018-12-25T22:38:31.486Z,6.23
2018-12-25T22:41:05.643Z,5.93
2018-12-25T22:43:39.940Z,5.90
2018-12-25T22:46:11.039Z,5.30
2018-12-25T22:49:26.907Z,5.47
2018-12-25T22:51:58.519Z,6.30
2018-12-25T22:54:29.632Z,6.67
2018-12-25T22:57:03.770Z,6.20
2018-12-25T22:59:34.902Z,6.07
2018-12-25T23:02:06.012Z,7.30
2018-12-25T23:04:37.160Z,7.27
2018-12-25T23:07:08.440Z,7.47
2018-12-25T23:09:39.552Z,7.10
2018-12-25T23:12:13.758Z,6.60
2018-12-25T23:14:46.440Z,6.77
2018-12-25T23:17:17.489Z,6.97
2018-12-25T23:19:48.458Z,6.73
2018-12-25T23:22:19.440Z,6.97
2018-12-25T23:24:50.371Z,6.87
2018-12-25T23:27:21.350Z,6.80
2018-12-25T23:29:52.378Z,6.53
2018-12-25T23:32:32.763Z,7.27
2018-12-25T23:35:03.798Z,6.80
2018-12-25T23:37:34.811Z,7.23
2018-12-25T23:40:06.101Z,7.13
2018-12-25T23:42:37.202Z,6.53
2018-12-25T23:45:08.163Z,6.43
2018-12-25T23:47:39.216Z,6.63
2018-12-25T23:50:10.156Z,6.17
2018-12-25T23:52:41.158Z,7.00
2018-12-25T23:55:12.091Z,6.17
2018-12-25T23:57:43.063Z,6.10
